Time;durP1;ratioP1;P1;durP2;ratioP2;P2;SDS_P1;SDS_P2;PMS_P1;PMS_P2;Temp;Humidity;BMP_temperature;BMP_pressure;BME280_temperature;BME280_humidity;BME280_pressure;Samples;Min_cycle;Max_cycle;Signal;HPM_P1;HPM_P2
2022/12/26 00:00:29;;;;;;;;;5.75;4.50;;;;;14.96;70.15;100834.78;2113854;27;46618;-64
2022/12/26 00:01:31;;;;;;;;;8.00;7.00;;;;;14.97;70.29;100837.41;2095145;28;46847;-63
2022/12/26 00:02:31;;;;;;;;;6.00;6.00;;;;;14.98;70.56;100840.94;2088228;28;46746;-62
2022/12/26 00:03:32;;;;;;;;;6.33;5.00;;;;;14.97;70.30;100844.56;2104712;27;46142;-61
2022/12/26 00:04:32;;;;;;;;;5.00;5.00;;;;;14.98;70.57;100838.28;2113572;27;46746;-62
2022/12/26 00:05:36;;;;;;;;;9.00;6.33;;;;;14.98;70.52;100843.63;2113672;27;46708;-63
2022/12/26 00:06:36;;;;;;;;;7.25;7.00;;;;;14.98;69.95;100846.28;2111439;27;46329;-62
2022/12/26 00:07:36;;;;;;;;;5.00;4.00;;;;;14.96;70.06;100846.34;2105980;28;46520;-62
2022/12/26 00:08:37;;;;;;;;;4.67;4.67;;;;;14.95;70.11;100841.94;2105553;28;46331;-63
2022/12/26 00:09:37;;;;;;;;;6.67;6.67;;;;;14.96;70.00;100843.69;2106039;27;46278;-63
2022/12/26 00:10:37;;;;;;;;;4.00;4.00;;;;;14.95;70.20;100844.59;2113776;27;46364;-62
2022/12/26 00:11:38;;;;;;;;;5.33;5.33;;;;;14.97;70.00;100847.22;2112909;27;45871;-61
2022/12/26 00:12:39;;;;;;;;;7.67;6.33;;;;;14.96;70.46;100846.34;2114079;27;46429;-62
2022/12/26 00:13:40;;;;;;;;;9.00;8.33;;;;;14.96;70.39;100846.34;2105253;28;45529;-62
2022/12/26 00:14:40;;;;;;;;;7.75;7.75;;;;;14.97;70.58;100844.56;2102613;28;46743;-62
2022/12/26 00:15:41;;;;;;;;;6.00;6.00;;;;;14.97;70.23;100839.19;2105418;28;46145;-63
2022/12/26 00:16:43;;;;;;;;;6.00;6.00;;;;;14.96;70.57;100835.66;2106066;27;46557;-62
2022/12/26 00:17:44;;;;;;;;;8.50;6.75;;;;;14.97;70.24;100841.88;2106011;27;46551;-62
2022/12/26 00:18:44;;;;;;;;;6.33;6.33;;;;;14.95;70.38;100841.94;2105356;28;46186;-62
2022/12/26 00:19:45;;;;;;;;;9.00;7.67;;;;;14.94;70.42;100844.69;2105732;27;47072;-63
2022/12/26 00:20:45;;;;;;;;;6.67;5.67;;;;;14.93;70.42;100854.50;2104878;28;46534;-62
2022/12/26 00:21:46;;;;;;;;;7.67;7.00;;;;;14.93;70.72;100842.94;2097195;28;46563;-62
2022/12/26 00:22:46;;;;;;;;;7.67;6.33;;;;;14.92;70.88;100850.09;2088302;28;46341;-62
2022/12/26 00:23:47;;;;;;;;;4.67;4.00;;;;;14.93;70.96;100846.47;2096771;28;46383;-62
2022/12/26 00:24:47;;;;;;;;;5.00;5.00;;;;;14.93;70.73;100843.81;2107904;27;47318;-63
2022/12/26 00:25:47;;;;;;;;;7.00;5.67;;;;;14.94;70.95;100839.31;2114464;27;45784;-62
2022/12/26 00:26:48;;;;;;;;;7.00;7.00;;;;;14.94;70.91;100850.00;2114599;27;46659;-62
2022/12/26 00:27:48;;;;;;;;;5.67;5.67;;;;;14.95;70.45;100852.63;2111483;27;46824;-62
2022/12/26 00:28:49;;;;;;;;;7.00;7.00;;;;;14.96;70.49;100848.16;2114237;27;46338;-62
2022/12/26 00:29:49;;;;;;;;;8.50;6.00;;;;;14.94;71.01;100850.00;2111765;27;46475;-62
2022/12/26 00:30:50;;;;;;;;;7.33;7.33;;;;;14.95;70.59;100857.09;2112025;27;47186;-62
2022/12/26 00:31:50;;;;;;;;;5.67;5.67;;;;;14.96;70.68;100850.81;2113783;27;46262;-62
2022/12/26 00:32:50;;;;;;;;;7.00;7.00;;;;;14.95;70.54;100851.75;2114111;27;46560;-62
2022/12/26 00:33:51;;;;;;;;;7.67;7.67;;;;;14.96;71.01;100856.16;2104740;28;46031;-62
2022/12/26 00:34:51;;;;;;;;;6.00;6.00;;;;;14.95;70.93;100854.44;2094317;28;46510;-62
2022/12/26 00:35:51;;;;;;;;;7.00;6.00;;;;;14.95;70.62;100852.63;2102731;28;46596;-61
2022/12/26 00:36:52;;;;;;;;;6.00;6.00;;;;;14.94;70.61;100847.34;2105524;28;46190;-62
2022/12/26 00:37:52;;;;;;;;;7.67;6.00;;;;;14.94;70.77;100848.22;2110137;27;46955;-62
2022/12/26 00:38:53;;;;;;;;;6.67;6.67;;;;;14.95;70.47;100851.75;2114247;27;44882;-62
2022/12/26 00:39:53;;;;;;;;;5.00;5.00;;;;;14.95;71.12;100849.09;2114238;27;45631;-62
2022/12/26 00:40:53;;;;;;;;;6.33;6.33;;;;;14.95;70.90;100839.28;2113696;27;46256;-62
2022/12/26 00:41:53;;;;;;;;;6.67;5.67;;;;;14.96;70.60;100848.16;2112863;27;46809;-62
2022/12/26 00:42:54;;;;;;;;;4.67;4.67;;;;;14.96;71.23;100853.50;2110700;27;46888;-62
2022/12/26 00:43:55;;;;;;;;;8.00;8.00;;;;;14.96;70.97;100853.50;2101785;28;46914;-62
2022/12/26 00:44:55;;;;;;;;;6.00;6.00;;;;;14.96;70.76;100840.13;2104965;28;46267;-62
2022/12/26 00:45:56;;;;;;;;;6.67;6.67;;;;;14.95;70.76;100836.59;2111573;27;46684;-62
2022/12/26 00:46:56;;;;;;;;;7.00;7.00;;;;;14.96;70.48;100837.47;2112329;27;46038;-62
2022/12/26 00:47:56;;;;;;;;;5.33;3.67;;;;;14.97;70.58;100849.91;2113561;27;46550;-62
2022/12/26 00:48:57;;;;;;;;;5.00;5.00;;;;;14.96;70.50;100849.03;2109246;27;46764;-62
2022/12/26 00:49:57;;;;;;;;;7.33;5.67;;;;;14.95;70.85;100849.09;2104972;28;46506;-62
2022/12/26 00:50:58;;;;;;;;;5.33;5.33;;;;;14.96;70.84;100853.50;2111051;27;46262;-63
2022/12/26 00:51:58;;;;;;;;;6.75;6.75;;;;;14.97;71.14;100857.91;2104760;28;45844;-63
2022/12/26 00:52:59;;;;;;;;;4.67;4.67;;;;;14.97;70.78;100853.44;2104492;28;46532;-63
2022/12/26 00:53:59;;;;;;;;;8.00;6.67;;;;;14.95;70.60;100854.44;2112653;27;46470;-63
2022/12/26 00:54:59;;;;;;;;;5.67;5.67;;;;;14.96;71.04;100864.19;2114061;27;46104;-62
2022/12/26 00:56:00;;;;;;;;;6.33;6.33;;;;;14.96;71.00;100869.53;2110542;27;46299;-62
2022/12/26 00:57:00;;;;;;;;;5.00;5.00;;;;;14.95;70.79;100860.66;2108276;27;46907;-62
2022/12/26 00:58:00;;;;;;;;;5.00;5.00;;;;;14.95;70.63;100857.09;2113933;27;46201;-63
2022/12/26 00:59:01;;;;;;;;;5.00;5.00;;;;;14.93;70.53;100854.50;2106141;27;46333;-63
2022/12/26 01:00:01;;;;;;;;;6.33;3.67;;;;;14.95;70.95;100841.06;2106585;27;45456;-62
2022/12/26 01:01:16;;;;;;;;;5.33;5.33;;;;;14.94;70.62;100840.19;2121933;27;46816;-62
2022/12/26 01:03:35;;;;;;;;;6.00;5.75;;;;;14.97;71.01;100831.19;2090958;28;47003;-63
2022/12/26 01:04:36;;;;;;;;;5.00;5.00;;;;;14.97;70.98;100831.19;2092633;28;46907;-62
2022/12/26 01:05:45;;;;;;;;;5.67;5.67;;;;;14.98;70.69;100838.28;2103634;28;46132;-62
2022/12/26 01:06:45;;;;;;;;;6.75;5.00;;;;;14.99;70.55;100840.91;2113635;27;46283;-63
2022/12/26 01:07:46;;;;;;;;;4.00;4.00;;;;;14.98;71.04;100843.63;2113961;27;46338;-62
2022/12/26 01:08:46;;;;;;;;;5.00;5.00;;;;;14.99;70.56;100842.69;2105695;27;46835;-63
2022/12/26 01:09:46;;;;;;;;;6.00;6.00;;;;;14.99;70.49;100840.91;2105121;28;46829;-63
2022/12/26 01:10:47;;;;;;;;;4.00;3.33;;;;;14.99;70.80;100848.03;2105426;28;46495;-62
2022/12/26 01:11:47;;;;;;;;;4.33;4.33;;;;;14.99;70.73;100850.69;2110478;27;46448;-62
2022/12/26 01:12:48;;;;;;;;;3.00;3.00;;;;;14.99;70.89;100859.63;2111836;27;46673;-63
2022/12/26 01:13:48;;;;;;;;;4.33;4.33;;;;;14.99;70.86;100854.28;2113459;27;46315;-62
2022/12/26 01:14:48;;;;;;;;;5.00;5.00;;;;;14.98;70.95;100846.28;2112581;27;46269;-62
2022/12/26 01:15:51;;;;;;;;;4.33;4.33;;;;;14.97;70.74;100855.25;2113770;27;45892;-63
2022/12/26 01:16:51;;;;;;;;;4.00;4.00;;;;;14.97;70.72;100863.25;2106272;27;46967;-62
2022/12/26 01:17:52;;;;;;;;;4.00;4.00;;;;;14.96;70.57;100858.84;2106869;27;46706;-62
2022/12/26 01:18:52;;;;;;;;;7.00;5.67;;;;;14.96;70.73;100869.53;2113736;27;46641;-61
2022/12/26 01:19:54;;;;;;;;;3.67;3.67;;;;;14.95;70.71;100865.13;2108179;27;46180;-61
2022/12/26 01:21:01;;;;;;;;;6.00;5.75;;;;;14.95;70.87;100879.34;2105795;27;46520;-62
2022/12/26 01:22:02;;;;;;;;;4.75;4.75;;;;;14.93;70.58;100875.88;2106805;27;46748;-62
2022/12/26 01:23:02;;;;;;;;;2.33;2.33;;;;;14.94;70.66;100877.63;2107358;27;46255;-63
2022/12/26 01:24:04;;;;;;;;;4.00;4.00;;;;;14.95;70.29;100886.50;2113050;27;46554;-60
2022/12/26 01:25:04;;;;;;;;;5.00;5.00;;;;;14.93;70.63;100885.69;2110675;27;45723;-62
2022/12/26 01:26:05;;;;;;;;;4.00;4.00;;;;;14.93;70.67;100880.34;2110432;27;46893;-62
2022/12/26 01:27:05;;;;;;;;;3.67;3.00;;;;;14.92;70.65;100883.94;2113694;27;46128;-61
2022/12/26 01:28:06;;;;;;;;;4.00;4.00;;;;;14.92;70.43;100875.94;2110762;27;47118;-63
2022/12/26 01:29:08;;;;;;;;;3.67;3.67;;;;;14.91;70.93;100882.22;2112606;27;46560;-61
2022/12/26 01:30:09;;;;;;;;;3.00;3.00;;;;;14.90;70.69;100876.00;2104986;28;46310;-61
2022/12/26 01:31:09;;;;;;;;;4.25;4.25;;;;;14.89;70.89;100873.38;2107176;27;46909;-62
2022/12/26 01:32:09;;;;;;;;;1.33;1.33;;;;;14.89;70.71;100871.56;2113481;27;46356;-62
2022/12/26 01:33:10;;;;;;;;;3.33;2.33;;;;;14.89;70.64;100868.91;2111378;27;46218;-62
2022/12/26 01:34:10;;;;;;;;;4.00;3.67;;;;;14.89;70.64;100870.72;2110627;27;46206;-62
2022/12/26 01:35:10;;;;;;;;;3.33;3.33;;;;;14.89;70.62;100871.56;2105311;28;46522;-62
2022/12/26 01:36:11;;;;;;;;;5.67;5.00;;;;;14.89;70.70;100874.25;2108651;27;46685;-62
2022/12/26 01:37:13;;;;;;;;;3.00;3.00;;;;;14.89;70.45;100865.38;2114131;27;46680;-62
2022/12/26 01:38:13;;;;;;;;;3.75;3.75;;;;;14.89;70.62;100871.56;2113336;27;46631;-62
2022/12/26 01:39:14;;;;;;;;;3.00;3.00;;;;;14.90;70.61;100873.31;2111817;27;46508;-61
2022/12/26 01:40:15;;;;;;;;;1.75;1.75;;;;;14.87;70.39;100869.91;2113463;27;46931;-61
2022/12/26 01:41:15;;;;;;;;;4.33;3.00;;;;;14.87;70.40;100869.91;2113115;27;46984;-62
2022/12/26 01:42:22;;;;;;;;;3.33;1.00;;;;;14.84;70.44;100878.88;2118944;27;46153;-63
2022/12/26 01:43:23;;;;;;;;;2.75;2.75;;;;;14.83;70.12;100879.81;2120862;27;46652;-62
2022/12/26 01:44:51;;;;;;;;;5.33;3.33;;;;;14.83;70.41;100884.28;2111271;27;46651;-62
2022/12/26 01:45:51;;;;;;;;;3.75;3.75;;;;;14.83;70.32;100894.97;2111183;27;46168;-61
2022/12/26 01:46:52;;;;;;;;;4.00;4.00;;;;;14.83;70.31;100894.97;2112738;27;45886;-62
2022/12/26 01:47:55;;;;;;;;;5.67;4.33;;;;;14.82;70.45;100895.91;2112851;27;46601;-61
2022/12/26 01:49:00;;;;;;;;;3.50;2.25;;;;;14.81;70.82;100887.00;2113157;27;46968;-61
2022/12/26 01:50:01;;;;;;;;;4.25;3.50;;;;;14.81;70.41;100892.34;2113639;27;46605;-61
2022/12/26 01:51:04;;;;;;;;;3.33;3.00;;;;;14.82;70.56;100904.78;2111294;27;46815;-62
2022/12/26 01:52:09;;;;;;;;;4.75;2.50;;;;;14.81;70.17;100913.72;2112848;27;46913;-62
2022/12/26 01:53:16;;;;;;;;;3.75;2.75;;;;;14.80;70.27;100922.66;2113775;27;46496;-61
2022/12/26 01:54:18;;;;;;;;;3.25;3.25;;;;;14.80;70.52;100927.16;2113370;27;46883;-62
2022/12/26 01:55:21;;;;;;;;;2.75;2.75;;;;;14.81;70.53;100931.56;2110452;27;46889;-62
2022/12/26 01:56:31;;;;;;;;;2.75;2.75;;;;;14.80;70.29;100928.00;2104913;28;46596;-62
2022/12/26 01:57:43;;;;;;;;;2.50;2.50;;;;;14.80;70.84;100933.34;2112096;27;47189;-62
2022/12/26 01:58:52;;;;;;;;;4.00;2.00;;;;;14.79;70.85;100934.28;2112604;27;46782;-62
2022/12/26 01:59:56;;;;;;;;;3.00;2.00;;;;;14.79;70.18;100936.97;2113597;27;46383;-62
2022/12/26 02:00:57;;;;;;;;;4.50;4.25;;;;;14.78;70.52;100929.88;2113265;27;46372;-61
2022/12/26 02:01:59;;;;;;;;;2.00;1.75;;;;;14.78;70.21;100931.69;2109411;27;46375;-63
2022/12/26 02:05:42;;;;;;;;;2.75;2.75;;;;;14.75;70.24;100955.84;2113333;27;46435;-61
2022/12/26 02:06:43;;;;;;;;;4.33;1.67;;;;;14.72;70.47;100943.44;2113508;27;46800;-62
2022/12/26 02:07:45;;;;;;;;;2.33;2.33;;;;;14.72;70.60;100949.66;2113665;27;46873;-61
2022/12/26 02:08:45;;;;;;;;;1.50;1.50;;;;;14.72;70.44;100928.28;2112538;27;46924;-62
2022/12/26 02:09:46;;;;;;;;;3.00;3.00;;;;;14.73;70.49;100923.81;2113834;27;46662;-62
2022/12/26 02:10:52;;;;;;;;;1.67;1.67;;;;;14.75;70.67;100926.44;2112988;27;46653;-62
2022/12/26 02:12:18;;;;;;;;;4.75;3.00;;;;;14.75;70.40;100924.66;2104133;28;46258;-62
2022/12/26 02:13:19;;;;;;;;;3.00;2.50;;;;;14.75;70.51;100930.00;2107090;27;47144;-61
2022/12/26 02:14:19;;;;;;;;;2.67;2.67;;;;;14.74;70.22;100925.56;2114494;27;46468;-62
2022/12/26 02:15:20;;;;;;;;;2.67;2.00;;;;;14.71;70.32;100923.84;2113856;27;47652;-63
2022/12/26 02:16:20;;;;;;;;;2.00;1.67;;;;;14.70;70.33;100930.13;2114220;27;46911;-62
2022/12/26 02:17:21;;;;;;;;;1.33;1.33;;;;;14.70;70.43;100931.94;2115157;27;46788;-63
2022/12/26 02:18:21;;;;;;;;;4.00;2.33;;;;;14.69;70.20;100927.53;2114686;27;46605;-62
2022/12/26 02:19:35;;;;;;;;;2.67;2.00;;;;;14.67;70.56;100922.22;2113440;27;46429;-62
2022/12/26 02:20:50;;;;;;;;;2.00;2.00;;;;;14.66;70.04;100916.94;2106706;28;46796;-62
2022/12/26 02:22:12;;;;;;;;;3.00;3.00;;;;;14.63;70.50;100917.94;2103037;28;46278;-62
2022/12/26 02:23:26;;;;;;;;;2.25;2.00;;;;;14.62;70.58;100910.84;2106598;28;46504;-62
2022/12/26 02:24:48;;;;;;;;;3.00;2.75;;;;;14.63;70.28;100909.94;2106048;27;46766;-62
2022/12/26 02:26:10;;;;;;;;;1.75;1.75;;;;;14.64;70.68;100902.78;2105633;28;46682;-62
2022/12/26 02:27:47;;;;;;;;;3.00;3.00;;;;;14.63;70.63;100909.94;2092186;28;46369;-60
2022/12/26 02:29:00;;;;;;;;;1.50;1.50;;;;;14.63;70.61;100907.25;2097814;28;46935;-62
2022/12/26 02:30:03;;;;;;;;;2.75;2.75;;;;;14.63;70.55;100909.06;2110633;27;46567;-62
2022/12/26 02:31:15;;;;;;;;;2.75;2.75;;;;;14.62;70.80;100909.97;2112478;27;46574;-62
2022/12/26 02:32:37;;;;;;;;;1.25;1.25;;;;;14.62;70.82;100913.53;2114935;27;46516;-63
2022/12/26 02:34:05;;;;;;;;;1.75;1.75;;;;;14.62;70.33;100915.31;2098006;28;46127;-61
2022/12/26 02:35:43;;;;;;;;;0.75;0.75;;;;;14.61;70.59;100922.47;2114872;27;46088;-61
2022/12/26 02:37:05;;;;;;;;;2.00;2.00;;;;;14.62;70.91;100934.03;2106196;28;46940;-62
2022/12/26 02:38:39;;;;;;;;;1.00;1.00;;;;;14.63;71.12;100943.78;2112624;27;46982;-61
2022/12/26 02:40:00;;;;;;;;;2.00;2.00;;;;;14.62;70.82;100931.34;2072209;28;46649;-61
2022/12/26 02:41:30;;;;;;;;;4.75;3.00;;;;;14.61;70.37;100925.13;2075870;28;46831;-62
2022/12/26 02:42:42;;;;;;;;;2.25;2.00;;;;;14.61;70.56;100926.91;2075314;28;46590;-62
2022/12/26 02:43:48;;;;;;;;;3.25;3.25;;;;;14.62;70.69;100926.00;2071989;28;46785;-62
2022/12/26 02:47:56;;;;;;;;;3.75;3.75;;;;;14.62;70.56;100905.50;2072289;28;46957;-62
2022/12/26 02:49:17;;;;;;;;;2.00;2.00;;;;;14.63;70.96;100898.38;2074789;28;46722;-63
2022/12/26 03:13:11;;;;;;;;;2.00;1.75;;;;;14.55;70.81;100893.28;2041202;28;46754;-62
2022/12/26 03:14:21;;;;;;;;;2.00;1.50;;;;;14.54;70.46;100902.22;2047801;28;46430;-62
2022/12/26 03:15:24;;;;;;;;;2.25;2.25;;;;;14.54;70.58;100912.03;2039837;28;46021;-62
2022/12/26 03:18:02;;;;;;;;;2.25;2.25;;;;;14.53;70.63;100907.63;2071090;28;46679;-61
2022/12/26 03:19:09;;;;;;;;;2.25;2.25;;;;;14.53;70.72;100902.28;2071745;28;46845;-60
2022/12/26 03:20:12;;;;;;;;;2.50;2.50;;;;;14.53;70.59;100902.28;2072027;28;45055;-61
2022/12/26 03:21:13;;;;;;;;;2.50;2.50;;;;;14.53;70.76;100894.28;2071736;28;46554;-61
2022/12/26 03:22:29;;;;;;;;;2.50;2.50;;;;;14.52;70.39;100890.72;2055811;28;45719;-62
2022/12/26 03:23:30;;;;;;;;;2.00;2.00;;;;;14.53;70.28;100891.59;2066128;28;46721;-62
2022/12/26 03:26:38;;;;;;;;;1.00;1.00;;;;;14.51;70.80;100891.66;2068417;28;46537;-62
2022/12/26 03:27:13;;;;;;;;;0.25;0.25;;;;;14.50;70.49;100891.72;2072117;28;46776;-62
2022/12/26 03:28:15;;;;;;;;;0.67;0.67;;;;;14.49;70.81;100890.84;2065338;28;46413;-63
2022/12/26 03:30:50;;;;;;;;;2.00;2.00;;;;;14.50;70.44;100905.94;2064018;28;46812;-61
2022/12/26 03:31:51;;;;;;;;;2.00;2.00;;;;;14.50;70.89;100897.94;2114490;27;46794;-61
2022/12/26 03:32:55;;;;;;;;;2.00;1.67;;;;;14.51;70.49;100906.81;2111909;27;46362;-62
2022/12/26 03:34:16;;;;;;;;;0.25;0.25;;;;;14.50;70.69;100905.94;2113591;27;46457;-62
2022/12/26 03:35:17;;;;;;;;;1.00;1.00;;;;;14.51;70.48;100905.00;2097233;28;46726;-62
2022/12/26 03:36:49;;;;;;;;;1.00;1.00;;;;;14.51;70.45;100905.00;2109375;27;46640;-61
2022/12/26 03:38:02;;;;;;;;;0.25;0.25;;;;;14.50;70.45;100905.06;2109091;27;47374;-61
2022/12/26 04:19:22;;;;;;;;;2.00;2.00;;;;;14.50;70.60;100908.63;2108042;27;45324;-61
2022/12/26 04:19:27;;;;;;;;;2.00;1.00;;;;;14.36;70.75;100934.88;2079925;28;45975;-62
2022/12/26 04:20:42;;;;;;;;;0.00;0.00;;;;;14.35;70.46;100931.31;2097446;28;47211;-61
2022/12/26 04:44:31;;;;;;;;;1.00;1.00;;;;;14.30;70.58;100953.75;2114387;27;47939;-62
2022/12/26 04:45:33;;;;;;;;;1.25;1.25;;;;;14.30;70.61;100953.75;2111737;27;46415;-62
2022/12/26 04:46:39;;;;;;;;;0.50;0.50;;;;;14.28;70.54;100951.16;2114143;27;47542;-61
2022/12/26 04:50:10;;;;;;;;;0.00;0.00;;;;;14.28;70.70;100953.81;2112209;27;46825;-61
2022/12/26 04:50:24;;;;;;;;;1.25;0.75;;;;;14.27;70.31;100957.41;2096044;28;46740;-62
2022/12/26 04:51:24;;;;;;;;;1.00;1.00;;;;;14.27;70.91;100967.22;2095847;28;46410;-62
2022/12/26 04:52:53;;;;;;;;;0.00;0.00;;;;;14.26;70.46;100963.69;2096098;28;46269;-62
2022/12/26 04:53:44;;;;;;;;;0.00;0.00;;;;;14.28;70.56;100968.97;2097476;28;47095;-63
2022/12/26 04:54:45;;;;;;;;;1.33;1.00;;;;;14.28;70.95;100952.94;2096641;28;46283;-63
2022/12/26 04:55:45;;;;;;;;;1.00;1.00;;;;;14.28;70.88;100975.16;2091411;28;45981;-63
2022/12/26 04:56:46;;;;;;;;;0.67;0.67;;;;;14.29;70.77;100987.59;2095296;28;47668;-64
2022/12/26 04:57:46;;;;;;;;;1.00;1.00;;;;;14.30;70.86;100988.47;2096658;28;46437;-64
2022/12/26 04:58:47;;;;;;;;;0.00;0.00;;;;;14.30;70.67;100994.69;2094241;28;46431;-65
2022/12/26 04:59:47;;;;;;;;;0.00;0.00;;;;;14.30;70.75;100994.69;2096428;28;46653;-62
2022/12/26 05:00:48;;;;;;;;;2.00;0.33;;;;;14.31;70.77;100992.88;2097715;28;47549;-64
2022/12/26 05:10:07;;;;;;;;;0.00;0.00;;;;;14.31;70.78;100984.88;2100039;27;47634;-64
2022/12/26 05:11:07;;;;;;;;;1.00;0.00;;;;;14.31;70.85;100993.75;2096783;28;46284;-65
2022/12/26 05:12:09;;;;;;;;;2.00;1.00;;;;;14.33;70.48;101004.38;2087794;28;46519;-64
2022/12/26 05:13:09;;;;;;;;;1.00;0.25;;;;;14.33;70.80;101005.25;2087904;28;47299;-62
2022/12/26 05:14:10;;;;;;;;;0.67;0.67;;;;;14.34;70.98;101006.13;2096316;28;46479;-61
2022/12/26 05:15:10;;;;;;;;;1.33;0.00;;;;;14.34;70.38;101003.44;2102270;28;46296;-63
2022/12/26 05:28:43;;;;;;;;;0.00;0.00;;;;;14.25;70.75;101015.31;2086699;28;46968;-61
2022/12/26 05:29:43;;;;;;;;;1.50;1.50;;;;;14.26;70.82;101005.50;2087363;28;45457;-61
2022/12/26 05:30:43;;;;;;;;;0.67;0.67;;;;;14.25;70.90;100999.31;2087420;28;46376;-62
2022/12/26 05:31:43;;;;;;;;;1.00;1.00;;;;;14.26;70.96;100995.72;2087371;28;46222;-61
2022/12/26 05:34:05;;;;;;;;;0.75;0.00;;;;;14.25;70.52;100996.63;2087535;28;46763;-61
2022/12/26 05:35:05;;;;;;;;;0.00;0.00;;;;;14.25;70.76;100998.44;2087551;28;45911;-62
2022/12/26 05:36:07;;;;;;;;;0.67;0.67;;;;;14.25;70.95;101003.78;2087315;28;46460;-62
2022/12/26 05:37:08;;;;;;;;;2.00;2.00;;;;;14.25;70.83;101001.09;2088023;28;46817;-64
2022/12/26 05:38:09;;;;;;;;;1.00;1.00;;;;;14.25;70.50;101003.78;2077676;28;45759;-62
2022/12/26 05:39:10;;;;;;;;;1.75;1.00;;;;;14.24;70.64;101002.03;2071162;28;46788;-61
2022/12/26 05:40:10;;;;;;;;;2.33;0.00;;;;;14.24;70.50;101010.03;2079000;28;46683;-62
2022/12/26 05:41:11;;;;;;;;;1.33;1.33;;;;;14.23;70.66;101005.59;2073902;28;46039;-61
2022/12/26 05:42:11;;;;;;;;;1.00;1.00;;;;;14.23;70.76;101010.94;2072516;28;46762;-62
2022/12/26 05:43:11;;;;;;;;;1.00;1.00;;;;;14.21;70.39;101019.00;2087557;28;46814;-62
2022/12/26 05:44:12;;;;;;;;;1.00;1.00;;;;;14.22;70.44;101009.19;2085277;28;46740;-61
2022/12/26 05:45:12;;;;;;;;;2.00;1.00;;;;;14.20;70.11;101006.56;2087264;28;46548;-61
2022/12/26 05:46:13;;;;;;;;;1.67;1.00;;;;;14.20;70.48;101022.59;2079620;28;46253;-61
2022/12/26 05:47:13;;;;;;;;;1.33;1.33;;;;;14.20;70.53;101021.72;2079287;28;46794;-61
2022/12/26 05:48:13;;;;;;;;;0.67;0.67;;;;;14.18;70.01;101024.44;2079255;28;45633;-62
2022/12/26 05:49:14;;;;;;;;;1.33;1.00;;;;;14.17;70.09;101020.03;2078686;28;46424;-64
2022/12/26 05:50:14;;;;;;;;;2.00;2.00;;;;;14.18;70.29;101020.88;2080825;28;46877;-63
2022/12/26 05:51:15;;;;;;;;;0.33;0.33;;;;;14.18;70.32;101026.22;2079511;28;46700;-62
2022/12/26 05:52:15;;;;;;;;;1.00;1.00;;;;;14.18;70.38;101034.22;2079995;28;46557;-62
2022/12/26 05:53:16;;;;;;;;;1.00;1.00;;;;;14.17;70.23;101036.03;2071409;28;46167;-61
2022/12/26 05:54:16;;;;;;;;;2.00;1.67;;;;;14.18;70.14;101039.56;2071965;28;46721;-62
2022/12/26 05:55:16;;;;;;;;;2.00;0.33;;;;;14.17;70.18;101052.03;2075076;28;46530;-63
2022/12/26 05:56:18;;;;;;;;;0.00;0.00;;;;;14.17;70.30;101060.06;2081564;28;46601;-62
2022/12/26 05:57:19;;;;;;;;;3.00;3.00;;;;;14.16;70.56;101060.97;2070511;28;46329;-60
2022/12/26 05:58:19;;;;;;;;;0.67;0.67;;;;;14.14;70.29;101047.69;2070850;28;46331;-62
2022/12/26 05:59:19;;;;;;;;;0.67;0.67;;;;;14.14;69.99;101050.34;2071170;28;46905;-61
2022/12/26 06:00:20;;;;;;;;;0.67;0.67;;;;;14.14;70.24;101054.81;2076366;28;46673;-63
2022/12/26 06:01:21;;;;;;;;;1.33;1.33;;;;;14.12;69.81;101046.88;2087537;28;46276;-62
2022/12/26 06:02:22;;;;;;;;;0.75;0.75;;;;;14.12;69.91;101051.31;2078470;28;46999;-62
2022/12/26 06:03:22;;;;;;;;;1.00;1.00;;;;;14.14;70.45;101052.16;2079765;28;46028;-63
2022/12/26 06:04:22;;;;;;;;;2.00;2.00;;;;;14.12;69.88;101048.66;2087361;28;46270;-62
2022/12/26 06:05:23;;;;;;;;;0.33;0.33;;;;;14.12;69.96;101046.00;2095652;28;46803;-62
2022/12/26 06:06:24;;;;;;;;;0.67;0.67;;;;;14.13;69.83;101053.94;2095644;28;46681;-62
2022/12/26 06:07:25;;;;;;;;;1.50;1.00;;;;;14.11;69.97;101046.91;2087221;28;46624;-62
2022/12/26 06:08:25;;;;;;;;;1.00;1.00;;;;;14.11;69.72;101053.13;2091096;28;46521;-62
2022/12/26 06:09:25;;;;;;;;;2.67;0.67;;;;;14.09;70.04;101046.94;2087276;28;46012;-61
2022/12/26 06:10:28;;;;;;;;;1.33;1.33;;;;;14.09;69.80;101046.06;2086143;28;46974;-61
2022/12/26 06:11:28;;;;;;;;;1.00;0.50;;;;;14.09;70.06;101046.94;2095783;28;46063;-62
2022/12/26 06:12:29;;;;;;;;;0.33;0.33;;;;;14.08;69.92;101042.53;2097432;27;46967;-61
2022/12/26 06:13:29;;;;;;;;;0.33;0.33;;;;;14.08;69.51;101049.66;2107066;27;46301;-62
2022/12/26 06:14:29;;;;;;;;;1.00;1.00;;;;;14.07;70.00;101045.25;2105411;27;46655;-62
2022/12/26 06:15:30;;;;;;;;;0.67;0.67;;;;;14.05;69.52;101042.63;2104420;28;46429;-62
2022/12/26 06:16:30;;;;;;;;;1.00;1.00;;;;;14.05;69.51;101053.28;2104394;28;46630;-62
2022/12/26 06:17:31;;;;;;;;;1.00;1.00;;;;;14.04;69.36;101042.66;2113312;27;46828;-62
2022/12/26 06:18:32;;;;;;;;;0.00;0.00;;;;;14.04;69.70;101040.00;2112619;27;45760;-62
2022/12/26 06:19:32;;;;;;;;;1.00;1.00;;;;;14.03;69.46;101038.25;2110717;27;46526;-60
2022/12/26 06:20:32;;;;;;;;;1.33;1.33;;;;;14.04;69.34;101040.88;2112919;27;46683;-61
2022/12/26 06:21:33;;;;;;;;;1.00;1.00;;;;;14.02;69.40;101037.38;2111535;27;46511;-62
2022/12/26 06:22:33;;;;;;;;;1.00;1.00;;;;;14.00;69.35;101031.22;2111342;27;46523;-61
2022/12/26 06:23:35;;;;;;;;;0.00;0.00;;;;;13.99;69.26;101029.47;2105087;28;46259;-62
2022/12/26 06:24:35;;;;;;;;;5.00;2.00;;;;;14.00;68.96;101038.38;2106354;27;46897;-61
2022/12/26 06:25:35;;;;;;;;;2.67;2.67;;;;;13.98;69.27;101033.06;2113325;27;45924;-63
2022/12/26 06:26:39;;;;;;;;;3.00;1.33;;;;;13.97;69.02;101027.75;2109402;27;46645;-61
2022/12/26 06:27:42;;;;;;;;;0.75;0.75;;;;;13.97;69.09;101027.75;2110794;27;46152;-61
2022/12/26 06:28:43;;;;;;;;;2.25;2.25;;;;;13.97;69.28;101025.09;2113628;27;46616;-61
2022/12/26 06:29:44;;;;;;;;;1.00;1.00;;;;;13.97;68.87;101030.44;2101707;28;46493;-62
2022/12/26 06:30:44;;;;;;;;;1.75;1.00;;;;;13.96;68.86;101024.22;2102985;28;47340;-61
2022/12/26 06:31:45;;;;;;;;;1.00;1.00;;;;;13.95;68.97;101021.59;2104699;28;48162;-62
2022/12/26 06:32:45;;;;;;;;;1.00;1.00;;;;;13.94;68.95;101015.38;2107070;27;46305;-62
2022/12/26 06:33:46;;;;;;;;;0.67;0.67;;;;;13.94;69.29;101014.53;2113491;27;46705;-62
2022/12/26 06:34:47;;;;;;;;;1.00;1.00;;;;;13.92;69.07;101025.25;2111094;27;45462;-61
2022/12/26 06:35:47;;;;;;;;;1.00;1.00;;;;;13.93;68.82;101028.78;2110640;27;46600;-62
2022/12/26 06:36:47;;;;;;;;;1.00;1.00;;;;;13.92;69.08;101029.72;2104836;28;46379;-62
2022/12/26 06:37:48;;;;;;;;;1.00;1.00;;;;;13.92;68.82;101041.25;2110011;27;47216;-62
2022/12/26 06:38:49;;;;;;;;;2.33;1.67;;;;;13.92;68.85;101045.72;2113496;27;46667;-62
2022/12/26 06:39:49;;;;;;;;;1.00;1.00;;;;;13.91;69.25;101044.84;2113288;27;46311;-62
2022/12/26 06:40:49;;;;;;;;;3.00;3.00;;;;;13.91;69.22;101044.84;2113219;27;46644;-61
2022/12/26 06:41:50;;;;;;;;;2.00;2.00;;;;;13.90;68.90;101043.09;2104141;28;46632;-63
2022/12/26 06:42:50;;;;;;;;;1.00;1.00;;;;;13.90;68.69;101047.56;2104603;28;45705;-62
2022/12/26 06:43:51;;;;;;;;;1.33;1.00;;;;;13.90;68.80;101048.44;2102575;28;46172;-62
2022/12/26 06:44:51;;;;;;;;;0.00;0.00;;;;;13.89;68.96;101057.34;2104323;28;46214;-62
2022/12/26 06:45:56;;;;;;;;;0.33;0.33;;;;;13.89;68.76;101056.47;2112533;27;45743;-61
2022/12/26 06:46:57;;;;;;;;;2.00;2.00;;;;;13.89;69.11;101057.34;2112887;27;47746;-63
2022/12/26 06:47:58;;;;;;;;;0.00;0.00;;;;;13.87;68.58;101061.88;2104750;28;46533;-63
2022/12/26 06:48:58;;;;;;;;;0.00;0.00;;;;;13.86;68.96;101062.78;2108004;27;47070;-61
2022/12/26 06:49:59;;;;;;;;;1.00;1.00;;;;;13.87;68.87;101069.00;2113332;27;45851;-62
2022/12/26 06:51:03;;;;;;;;;0.00;0.00;;;;;13.86;69.03;101076.13;2109278;27;46987;-63
2022/12/26 06:52:04;;;;;;;;;2.00;1.00;;;;;13.85;68.71;101066.38;2107300;27;45843;-62
2022/12/26 06:53:04;;;;;;;;;2.00;2.00;;;;;13.86;68.98;101070.78;2113236;27;46532;-61
2022/12/26 06:54:05;;;;;;;;;3.00;3.00;;;;;13.87;69.22;101077.00;2113315;27;45610;-61